createdAt,value
2022-11-12T00:00:18.707Z,17.1
2022-11-12T00:03:20.626Z,16.9
2022-11-12T00:06:22.651Z,19
2022-11-12T00:09:24.533Z,17.1
2022-11-12T00:12:26.480Z,16.2
2022-11-12T00:15:28.444Z,16.2
2022-11-12T00:18:30.413Z,17
2022-11-12T00:21:32.386Z,18.8
2022-11-12T00:24:34.346Z,16.6
2022-11-12T00:27:36.316Z,17.6
2022-11-12T00:30:38.277Z,19.6
2022-11-12T00:33:40.237Z,18.5
2022-11-12T00:36:42.212Z,19.1
2022-11-12T00:39:44.171Z,18
2022-11-12T00:42:46.121Z,18.9
2022-11-12T00:45:48.077Z,18.8
2022-11-12T00:48:50.042Z,17.9
2022-11-12T00:51:52.012Z,16.2
2022-11-12T00:54:53.954Z,17.3
2022-11-12T00:57:55.914Z,14.6
2022-11-12T01:00:57.888Z,14.6
2022-11-12T01:03:59.953Z,15.3
2022-11-12T01:07:05.202Z,16.4
2022-11-12T01:10:07.117Z,15.5
2022-11-12T01:13:09.055Z,16.4
2022-11-12T01:16:11.020Z,13.5
2022-11-12T01:19:13.018Z,14.8
2022-11-12T01:22:14.965Z,15.9
2022-11-12T01:25:16.914Z,14.7
2022-11-12T01:28:18.866Z,14.2
2022-11-12T01:31:20.839Z,15.1
2022-11-12T01:34:22.813Z,16.2
2022-11-12T01:37:24.779Z,14.3
2022-11-12T01:40:26.744Z,13.8
2022-11-12T01:43:28.708Z,15.6
2022-11-12T01:46:30.671Z,15
2022-11-12T01:49:32.646Z,13.7
2022-11-12T01:52:34.604Z,13.8
2022-11-12T01:55:36.560Z,13.2
2022-11-12T01:58:38.513Z,14
2022-11-12T02:01:40.475Z,14.3
2022-11-12T02:04:42.439Z,12.6
2022-11-12T02:07:44.402Z,13
2022-11-12T02:10:46.369Z,12.3
2022-11-12T02:13:48.312Z,12
2022-11-12T02:16:50.299Z,13.4
2022-11-12T02:19:52.240Z,11.5
2022-11-12T02:22:54.204Z,11.7
2022-11-12T02:25:56.157Z,12.5
2022-11-12T02:28:58.125Z,12.2
2022-11-12T02:32:00.113Z,13.4
2022-11-12T02:35:02.066Z,12.5
2022-11-12T02:38:04.025Z,12.5
2022-11-12T02:41:05.982Z,12.8
2022-11-12T02:44:07.944Z,12.4
2022-11-12T02:47:09.921Z,15
2022-11-12T02:50:11.883Z,14.2
2022-11-12T02:53:13.845Z,14.7
2022-11-12T02:56:15.788Z,13.6
2022-11-12T02:59:17.755Z,13.5
2022-11-12T03:02:19.714Z,13.3
2022-11-12T03:05:21.668Z,14.4
2022-11-12T03:08:23.913Z,15
2022-11-12T03:11:25.581Z,15.6
2022-11-12T03:14:27.538Z,15.6
2022-11-12T03:17:29.499Z,14
2022-11-12T03:20:31.466Z,14
2022-11-12T03:23:33.411Z,13.6
2022-11-12T03:26:36.045Z,15.6
2022-11-12T03:29:37.331Z,15.8
2022-11-12T03:32:39.290Z,14.1
2022-11-12T03:35:41.258Z,15.6
2022-11-12T03:38:43.213Z,15.6
2022-11-12T03:41:45.175Z,16.4
2022-11-12T03:44:47.124Z,15.8
2022-11-12T03:47:49.092Z,15.6
2022-11-12T03:50:51.079Z,13.4
2022-11-12T03:53:53.020Z,13.8
2022-11-12T03:56:54.984Z,13.1
2022-11-12T03:59:56.950Z,12.7
2022-11-12T04:02:58.917Z,13.3
2022-11-12T04:06:00.895Z,11.5
2022-11-12T04:09:02.841Z,14.1
2022-11-12T04:12:04.807Z,13.5
2022-11-12T04:15:06.759Z,12
2022-11-12T04:18:08.725Z,14.1
2022-11-12T04:21:10.693Z,12.6
2022-11-12T04:24:12.654Z,14.7
2022-11-12T04:27:14.621Z,15.6
2022-11-12T04:30:16.595Z,16.1
2022-11-12T04:33:18.758Z,16.1
2022-11-12T04:36:20.502Z,15.4
2022-11-12T04:39:22.460Z,15.1
2022-11-12T04:42:24.496Z,13.2
2022-11-12T04:45:26.456Z,13.8
2022-11-12T04:48:28.642Z,15.8
2022-11-12T04:51:30.397Z,13.1
2022-11-12T04:54:32.333Z,14.5
2022-11-12T04:57:34.305Z,14.6
2022-11-12T05:00:36.248Z,12.6
2022-11-12T05:03:38.229Z,11.3
2022-11-12T05:06:40.183Z,14
2022-11-12T05:09:42.143Z,12.8
2022-11-12T05:12:44.091Z,11.8
2022-11-12T05:15:46.057Z,13.1
2022-11-12T05:18:48.018Z,10.5
2022-11-12T05:21:49.966Z,12.3
2022-11-12T05:24:51.928Z,9.8
2022-11-12T05:27:53.889Z,11.2
2022-11-12T05:30:55.909Z,11.8
2022-11-12T05:33:57.815Z,11.6
2022-11-12T05:36:59.778Z,11.6
2022-11-12T05:40:01.757Z,11.8
2022-11-12T05:43:03.704Z,10.8
2022-11-12T05:46:05.663Z,12.1
2022-11-12T05:49:07.615Z,11.9
2022-11-12T05:52:09.615Z,11
2022-11-12T05:55:11.561Z,11.5
2022-11-12T05:58:13.517Z,11.3
2022-11-12T06:01:15.471Z,10.4
2022-11-12T06:04:17.436Z,12.7
2022-11-12T06:07:19.469Z,11.4
2022-11-12T06:13:23.323Z,11.1
2022-11-12T06:16:25.276Z,11.8
2022-11-12T06:19:27.249Z,10
2022-11-12T06:22:29.207Z,10.5
2022-11-12T06:25:31.161Z,9.8
2022-11-12T06:28:33.118Z,10.9
2022-11-12T06:31:35.078Z,11.3
2022-11-12T06:34:37.039Z,9.7
2022-11-12T06:37:39.002Z,10.9
2022-11-12T06:40:40.965Z,9.6
2022-11-12T06:43:42.927Z,10.2
2022-11-12T06:46:44.886Z,9.1
2022-11-12T06:49:46.845Z,9.5
2022-11-12T06:52:48.804Z,8.6
2022-11-12T06:55:50.772Z,8.8
2022-11-12T06:58:52.905Z,9.8
2022-11-12T07:01:54.782Z,11.4
2022-11-12T07:04:56.656Z,10.7
2022-11-12T07:07:58.669Z,10.7
2022-11-12T07:11:00.579Z,10.3
2022-11-12T07:14:02.533Z,10.8
2022-11-12T07:17:04.497Z,10.8
2022-11-12T07:20:06.444Z,9.9
2022-11-12T07:23:08.415Z,12.8
2022-11-12T07:26:10.368Z,10.4
2022-11-12T07:29:12.750Z,11.1
2022-11-12T07:32:14.281Z,10.4
2022-11-12T07:35:16.239Z,10.2
2022-11-12T07:38:18.199Z,10.2
2022-11-12T07:41:20.148Z,10.8
2022-11-12T07:44:22.127Z,9.9
2022-11-12T07:47:24.104Z,10.7
2022-11-12T07:50:26.058Z,9.5
2022-11-12T07:53:27.991Z,8.5
2022-11-12T07:56:29.953Z,10.9
2022-11-12T07:59:31.896Z,9.7
2022-11-12T08:02:33.857Z,9.2
2022-11-12T08:05:35.840Z,9.9
2022-11-12T08:08:37.803Z,9.6
2022-11-12T08:11:39.841Z,9.5
2022-11-12T08:14:41.808Z,9.6
2022-11-12T08:17:43.765Z,10.1
2022-11-12T08:20:45.736Z,8.7
2022-11-12T08:23:47.689Z,9.7
2022-11-12T08:26:49.643Z,9.6
2022-11-12T08:29:51.622Z,10.2
2022-11-12T08:32:53.586Z,10.6
2022-11-12T08:35:55.541Z,10.1
2022-11-12T08:38:57.512Z,10.6
2022-11-12T08:41:59.476Z,10.4
2022-11-12T08:45:01.460Z,11.6
2022-11-12T08:48:03.417Z,10.6
2022-11-12T08:51:05.369Z,11.2
2022-11-12T08:54:07.331Z,11.3
2022-11-12T08:57:09.294Z,10.1
2022-11-12T09:00:11.275Z,10.8
2022-11-12T09:03:13.241Z,11.4
2022-11-12T09:06:15.201Z,11.3
2022-11-12T09:09:17.164Z,11.5
2022-11-12T09:12:19.519Z,12.3
2022-11-12T09:15:37.267Z,12.4
2022-11-12T09:18:23.127Z,12.3
2022-11-12T09:21:25.057Z,12.8
2022-11-12T09:24:26.968Z,12.2
2022-11-12T09:27:28.940Z,13.4
2022-11-12T09:30:30.907Z,10.6
2022-11-12T09:33:32.862Z,11.7
2022-11-12T09:36:38.693Z,12.6
2022-11-12T09:39:36.778Z,13.9
2022-11-12T09:42:38.767Z,13.2
2022-11-12T09:45:43.887Z,13.5
2022-11-12T09:48:42.655Z,12.7
2022-11-12T09:51:44.615Z,13.2
2022-11-12T09:54:46.582Z,12.6
2022-11-12T09:57:48.549Z,11.9
2022-11-12T10:00:50.528Z,14
2022-11-12T10:03:52.508Z,11.8
2022-11-12T10:06:54.586Z,13.4
2022-11-12T10:09:56.418Z,10.5
2022-11-12T10:12:58.371Z,12.4
2022-11-12T10:16:00.332Z,12.5
2022-11-12T10:19:02.296Z,14.9
2022-11-12T10:22:04.267Z,12.8
2022-11-12T10:25:06.223Z,13.4
2022-11-12T10:28:08.213Z,12.6
2022-11-12T10:31:10.158Z,13.9
2022-11-12T10:34:12.117Z,12.4
2022-11-12T10:37:14.090Z,12.7
2022-11-12T10:40:16.049Z,11.2
2022-11-12T10:43:18.013Z,11.1
2022-11-12T10:46:19.967Z,11.8
2022-11-12T10:49:21.941Z,11.8
2022-11-12T10:52:23.893Z,12.3
2022-11-12T10:55:25.862Z,12.3
2022-11-12T10:58:28.067Z,13
2022-11-12T11:01:33.548Z,12.4
2022-11-12T11:04:31.757Z,14.2
2022-11-12T11:07:33.717Z,14
2022-11-12T11:10:35.686Z,14.2
2022-11-12T11:13:37.670Z,14.4
2022-11-12T11:16:39.630Z,15.5
2022-11-12T11:19:41.589Z,14.4
2022-11-12T11:22:43.577Z,14
2022-11-12T11:25:45.517Z,15.1
2022-11-12T11:28:47.494Z,13.9
2022-11-12T11:31:49.451Z,14.4
2022-11-12T11:34:51.428Z,13.2
2022-11-12T11:37:57.331Z,12.9
2022-11-12T11:40:55.358Z,12.3
2022-11-12T11:43:57.342Z,12
2022-11-12T11:46:59.301Z,13.7
2022-11-12T11:50:01.241Z,13.2
2022-11-12T11:53:03.201Z,15.2
2022-11-12T11:56:05.168Z,15.2
2022-11-12T11:59:07.116Z,13.5
2022-11-12T12:02:09.095Z,11.5
2022-11-12T12:05:11.060Z,11.8
2022-11-12T12:08:13.101Z,11.9
2022-11-12T12:11:15.062Z,13.1
2022-11-12T12:14:17.026Z,13.2
2022-11-12T12:17:18.977Z,11.9
2022-11-12T12:20:20.937Z,12.7
2022-11-12T12:23:22.898Z,11.9
2022-11-12T12:26:24.856Z,12.3
2022-11-12T12:29:26.824Z,12
2022-11-12T12:32:28.789Z,11.1
2022-11-12T12:35:30.767Z,12.1
2022-11-12T12:38:32.724Z,10.5
2022-11-12T12:41:34.689Z,14.4
2022-11-12T12:44:36.703Z,13
2022-11-12T12:47:38.639Z,13.7
2022-11-12T12:50:40.609Z,12.7
2022-11-12T12:53:42.566Z,12.5
2022-11-12T12:56:44.520Z,12
2022-11-12T12:59:46.494Z,12.2
2022-11-12T13:02:48.450Z,13.2
2022-11-12T13:05:50.433Z,14
2022-11-12T13:08:52.375Z,13.6
2022-11-12T13:11:54.326Z,13.3
2022-11-12T13:14:56.299Z,12
2022-11-12T13:17:58.275Z,10.9
2022-11-12T13:21:00.258Z,13.1
2022-11-12T13:24:02.196Z,14.3
2022-11-12T13:27:04.163Z,12.4
2022-11-12T13:30:06.125Z,12.6
2022-11-12T13:33:11.592Z,11.8
2022-11-12T13:36:10.062Z,12.5
2022-11-12T13:39:12.033Z,14.2
2022-11-12T13:42:14.004Z,13.5
2022-11-12T13:45:15.958Z,13
2022-11-12T13:48:17.938Z,14.8
2022-11-12T13:51:19.907Z,13.5
2022-11-12T13:54:21.862Z,15.2
2022-11-12T13:57:23.826Z,14.5
2022-11-12T14:00:25.776Z,13
2022-11-12T14:03:27.736Z,14.4
2022-11-12T14:06:29.696Z,12.8
2022-11-12T14:09:31.667Z,12.6
2022-11-12T14:12:33.618Z,13.6
2022-11-12T14:15:35.571Z,15.1
2022-11-12T14:18:37.553Z,14.6
2022-11-12T14:21:39.501Z,12.6
2022-11-12T14:24:41.469Z,12.5
2022-11-12T14:27:43.456Z,12
2022-11-12T14:30:45.404Z,11.6
2022-11-12T14:33:47.358Z,11.8
2022-11-12T14:36:49.322Z,12.4
2022-11-12T14:39:51.288Z,12
2022-11-12T14:42:53.426Z,12.5
2022-11-12T14:45:55.196Z,11.4
2022-11-12T14:48:57.156Z,9.9
2022-11-12T14:51:59.114Z,12
2022-11-12T14:55:01.085Z,12.5
2022-11-12T14:58:03.041Z,11.8
2022-11-12T15:01:05.061Z,11.7
2022-11-12T15:04:06.971Z,12.5
2022-11-12T15:07:08.980Z,12.6
2022-11-12T15:10:10.883Z,12.5
2022-11-12T15:13:12.826Z,10.9
2022-11-12T15:16:14.796Z,11.9
2022-11-12T15:19:16.756Z,12
2022-11-12T15:22:18.777Z,13.2
2022-11-12T15:25:21.344Z,11.7
2022-11-12T15:28:23.195Z,13.4
2022-11-12T15:31:25.159Z,12.8
2022-11-12T15:34:27.120Z,13.3
2022-11-12T15:37:29.072Z,12
2022-11-12T15:40:31.050Z,14.7
2022-11-12T15:43:33.013Z,13.8
2022-11-12T15:46:34.964Z,13.2
2022-11-12T15:49:36.929Z,13.5
2022-11-12T15:52:38.911Z,13.9
2022-11-12T15:55:40.860Z,13.4
2022-11-12T15:58:42.870Z,16.3
2022-11-12T16:01:44.845Z,13.6
2022-11-12T16:04:46.808Z,15.1
2022-11-12T16:07:48.777Z,13.5
2022-11-12T16:10:50.718Z,13.1
2022-11-12T16:13:52.711Z,12
2022-11-12T16:16:54.633Z,12.5
2022-11-12T16:19:56.592Z,17.3
2022-11-12T16:22:58.549Z,16.8
2022-11-12T16:26:00.507Z,15.8
2022-11-12T16:29:02.490Z,13.1
2022-11-12T16:32:04.436Z,11.3
2022-11-12T16:35:06.391Z,12.7
2022-11-12T16:38:08.356Z,13.2
2022-11-12T16:41:10.326Z,11.3
2022-11-12T16:44:12.277Z,11
2022-11-12T16:47:14.226Z,12
2022-11-12T16:50:16.194Z,13.2
2022-11-12T16:53:18.155Z,12.5
2022-11-12T16:56:20.107Z,11.4
2022-11-12T16:59:22.135Z,11.1
2022-11-12T17:02:24.089Z,15.4
2022-11-12T17:05:26.069Z,13.3
2022-11-12T17:08:32.644Z,11.5
2022-11-12T17:11:29.995Z,13.8
2022-11-12T17:14:31.966Z,14.3
2022-11-12T17:17:33.911Z,13
2022-11-12T17:20:35.877Z,12
2022-11-12T17:23:37.834Z,11.6
2022-11-12T17:26:39.789Z,13
2022-11-12T17:29:41.757Z,12.2
2022-11-12T17:32:43.719Z,10.2
2022-11-12T17:35:45.807Z,9.9
2022-11-12T17:38:47.632Z,8.3
2022-11-12T17:41:49.605Z,11.4
2022-11-12T17:44:51.581Z,15.2
2022-11-12T17:47:53.622Z,11.1
2022-11-12T17:50:55.493Z,12.7
2022-11-12T17:53:57.522Z,11.7
2022-11-12T17:56:59.511Z,10.8
2022-11-12T18:00:01.456Z,9.4
2022-11-12T18:03:03.417Z,11.6
2022-11-12T18:06:05.390Z,10.6
2022-11-12T18:09:07.358Z,10.4
2022-11-12T18:12:09.355Z,8.7
2022-11-12T18:15:11.303Z,8.4
2022-11-12T18:18:13.266Z,9.1
2022-11-12T18:21:15.225Z,10.6
2022-11-12T18:24:17.224Z,12.4
2022-11-12T18:27:19.230Z,12.5
2022-11-12T18:30:21.195Z,12.6
2022-11-12T18:33:23.146Z,12.5
2022-11-12T18:36:25.113Z,12.5
2022-11-12T18:39:27.075Z,10.9
2022-11-12T18:42:29.018Z,13.6
2022-11-12T18:45:30.991Z,12.3
2022-11-12T18:48:32.945Z,13.4
2022-11-12T18:51:34.920Z,11
2022-11-12T18:54:36.899Z,11.2
2022-11-12T18:57:38.859Z,12.7
2022-11-12T19:00:40.828Z,11.3
2022-11-12T19:03:42.809Z,12.3
2022-11-12T19:06:44.811Z,11.9
2022-11-12T19:09:46.752Z,11.9
2022-11-12T19:12:48.683Z,14.6
2022-11-12T19:15:50.662Z,14.8
2022-11-12T19:18:52.641Z,11.2
2022-11-12T19:21:54.591Z,11.4
2022-11-12T19:24:56.558Z,12.3
2022-11-12T19:27:58.525Z,10.8
2022-11-12T19:31:00.494Z,12.9
2022-11-12T19:34:02.450Z,11.2
2022-11-12T19:37:32.838Z,14.4
2022-11-12T19:40:06.403Z,14.5
2022-11-12T19:43:08.351Z,12.4
2022-11-12T19:46:11.574Z,13.1
2022-11-12T19:49:12.291Z,11.8
2022-11-12T19:52:14.269Z,11.5
2022-11-12T19:55:16.252Z,11.5
2022-11-12T19:58:18.185Z,10.8
2022-11-12T20:01:20.272Z,9.6
2022-11-12T20:04:24.297Z,10.3
2022-11-12T20:07:24.119Z,11.7
2022-11-12T20:10:26.082Z,11.7
2022-11-12T20:13:28.039Z,10.1
2022-11-12T20:16:30.011Z,10.5
2022-11-12T20:19:31.965Z,9.3
2022-11-12T20:22:33.922Z,11.8
2022-11-12T20:25:35.897Z,10.9
2022-11-12T20:28:37.855Z,13
2022-11-12T20:31:39.836Z,11.4
2022-11-12T20:34:41.807Z,11.3
2022-11-12T20:37:43.762Z,12.1
2022-11-12T20:40:45.724Z,11.2
2022-11-12T20:43:47.696Z,12.4
2022-11-12T20:46:49.661Z,10.7
2022-11-12T20:49:51.638Z,10
2022-11-12T20:52:53.777Z,11.1
2022-11-12T20:55:55.567Z,11.5
2022-11-12T20:58:57.520Z,9.8
2022-11-12T21:01:59.511Z,9.7
2022-11-12T21:05:01.455Z,8.8
2022-11-12T21:08:03.418Z,9.2
2022-11-12T21:11:05.381Z,11.3
2022-11-12T21:14:07.345Z,9.1
2022-11-12T21:17:09.303Z,9.7
2022-11-12T21:20:11.275Z,10.5
2022-11-12T21:23:13.232Z,9.9
2022-11-12T21:26:15.313Z,10.1
2022-11-12T21:29:19.001Z,9.3
2022-11-12T21:32:19.139Z,8.4
2022-11-12T21:35:21.091Z,9.7
2022-11-12T21:38:23.047Z,10.2
2022-11-12T21:41:24.999Z,8.7
2022-11-12T21:44:26.958Z,9.8
2022-11-12T21:47:28.951Z,8.2
2022-11-12T21:50:30.922Z,8.8
2022-11-12T21:53:32.855Z,9.4
2022-11-12T21:56:34.817Z,9.2
2022-11-12T21:59:36.792Z,8.2
2022-11-12T22:02:38.769Z,8.5
2022-11-12T22:05:40.700Z,8.2
2022-11-12T22:08:42.651Z,9.9
2022-11-12T22:11:44.613Z,9.7
2022-11-12T22:14:46.595Z,9.2
2022-11-12T22:17:48.555Z,9.1
2022-11-12T22:20:50.548Z,8.3
2022-11-12T22:23:52.498Z,9
2022-11-12T22:26:54.455Z,10
2022-11-12T22:29:56.430Z,8.9
2022-11-12T22:32:58.388Z,7.4
2022-11-12T22:36:00.374Z,8.9
2022-11-12T22:39:02.318Z,10.6
2022-11-12T22:42:04.297Z,8.5
2022-11-12T22:45:06.257Z,8.7
2022-11-12T22:48:08.221Z,8.8
2022-11-12T22:51:10.226Z,8.9
2022-11-12T22:54:12.164Z,9.3
2022-11-12T22:57:14.125Z,10
2022-11-12T23:00:16.108Z,8.9
2022-11-12T23:03:18.055Z,9.3
2022-11-12T23:06:20.022Z,9.4
2022-11-12T23:09:21.981Z,9.9
2022-11-12T23:12:23.951Z,10.1
2022-11-12T23:15:25.927Z,9.8
2022-11-12T23:18:28.035Z,9.3
2022-11-12T23:21:29.879Z,8.7
2022-11-12T23:24:31.839Z,9.3
2022-11-12T23:27:33.789Z,9.4
2022-11-12T23:30:35.774Z,8.4
2022-11-12T23:33:37.778Z,8.9
2022-11-12T23:36:39.740Z,8.1
2022-11-12T23:39:41.701Z,9.3
2022-11-12T23:42:43.662Z,8.8
2022-11-12T23:45:45.657Z,7.1
2022-11-12T23:48:47.602Z,8.7
2022-11-12T23:51:49.582Z,7.4
2022-11-12T23:54:51.542Z,7.6
2022-11-12T23:57:53.498Z,7.7
